createdAt,value
2023-05-19T00:00:50.562Z,2.20
2023-05-19T00:03:21.874Z,2.85
2023-05-19T00:05:50.568Z,2.33
2023-05-19T00:08:18.352Z,3.03
2023-05-19T00:10:46.296Z,2.60
2023-05-19T00:13:14.063Z,2.63
2023-05-19T00:15:42.252Z,2.63
2023-05-19T00:18:14.110Z,2.28
2023-05-19T00:23:09.287Z,2.30
2023-05-19T00:25:36.784Z,2.58
2023-05-19T00:28:04.557Z,2.67
2023-05-19T00:30:32.802Z,2.75
2023-05-19T00:33:00.555Z,2.50
2023-05-19T00:35:29.386Z,2.10
2023-05-19T00:37:57.221Z,3.38
2023-05-19T00:40:25.713Z,3.10
2023-05-19T00:42:53.207Z,2.97
2023-05-19T00:45:20.704Z,3.22
2023-05-19T00:47:49.606Z,3.80
2023-05-19T00:50:17.244Z,3.75
2023-05-19T00:52:46.091Z,3.63
2023-05-19T00:55:14.146Z,3.10
2023-05-19T00:57:41.755Z,2.72
2023-05-19T01:00:11.305Z,2.97
2023-05-19T01:02:39.998Z,2.70
2023-05-19T01:05:08.593Z,4.03
2023-05-19T01:07:36.712Z,2.97
2023-05-19T01:10:06.169Z,2.92
2023-05-19T01:12:33.770Z,2.47
2023-05-19T01:15:01.360Z,3.03
2023-05-19T01:17:34.328Z,2.42
2023-05-19T01:20:06.638Z,2.67
2023-05-19T01:22:43.841Z,2.30
2023-05-19T01:25:36.332Z,2.50
2023-05-19T01:28:19.878Z,2.55
2023-05-19T01:30:49.986Z,2.40
2023-05-19T01:33:18.514Z,2.30
2023-05-19T01:35:47.052Z,2.03
2023-05-19T01:38:17.536Z,2.20
2023-05-19T01:40:46.279Z,2.00
2023-05-19T01:43:15.908Z,2.30
2023-05-19T01:45:43.785Z,1.98
2023-05-19T01:48:13.370Z,2.60
2023-05-19T01:50:41.262Z,2.15
2023-05-19T01:53:09.223Z,2.30
2023-05-19T01:55:37.353Z,3.45
2023-05-19T01:58:11.297Z,4.22
2023-05-19T02:00:51.072Z,3.45
2023-05-19T02:03:30.412Z,3.38
2023-05-19T02:06:04.650Z,2.75
2023-05-19T02:08:40.077Z,2.47
2023-05-19T02:11:09.142Z,2.70
2023-05-19T02:13:38.872Z,2.15
2023-05-19T02:16:07.385Z,2.40
2023-05-19T02:18:36.290Z,2.03
2023-05-19T02:21:03.869Z,2.30
2023-05-19T02:23:32.069Z,2.20
2023-05-19T02:25:59.604Z,2.22
2023-05-19T02:28:36.553Z,2.22
2023-05-19T02:31:06.370Z,2.17
2023-05-19T02:33:33.816Z,2.15
2023-05-19T02:36:03.103Z,2.20
2023-05-19T02:38:30.986Z,2.00
2023-05-19T02:40:58.638Z,2.25
2023-05-19T02:43:26.091Z,1.98
2023-05-19T02:45:53.615Z,2.20
2023-05-19T02:48:21.129Z,2.40
2023-05-19T02:50:48.611Z,2.20
2023-05-19T02:53:17.384Z,2.38
2023-05-19T02:55:44.902Z,1.98
2023-05-19T02:58:12.335Z,2.55
2023-05-19T03:00:40.111Z,2.30
2023-05-19T03:03:10.319Z,2.40
2023-05-19T03:05:37.993Z,2.33
2023-05-19T03:08:06.206Z,1.98
2023-05-19T03:10:35.056Z,2.13
2023-05-19T03:13:02.633Z,2.55
2023-05-19T03:15:30.706Z,2.40
2023-05-19T03:17:58.269Z,2.30
2023-05-19T03:20:25.882Z,2.35
2023-05-19T03:22:53.362Z,2.25
2023-05-19T03:25:20.974Z,2.05
2023-05-19T03:27:49.780Z,2.63
2023-05-19T03:30:17.837Z,1.90
2023-05-19T03:32:45.427Z,2.53
2023-05-19T03:35:13.021Z,2.78
2023-05-19T03:37:40.547Z,2.10
2023-05-19T03:40:10.530Z,2.40
2023-05-19T03:42:38.123Z,1.85
2023-05-19T03:45:08.293Z,2.28
2023-05-19T03:47:35.806Z,2.17
2023-05-19T03:50:03.356Z,2.13
2023-05-19T03:52:30.824Z,2.20
2023-05-19T03:54:58.687Z,2.10
2023-05-19T03:57:26.217Z,2.10
2023-05-19T03:59:53.700Z,2.08
2023-05-19T04:02:22.574Z,2.15
2023-05-19T04:04:50.759Z,2.03
2023-05-19T04:07:18.431Z,2.30
2023-05-19T04:09:46.333Z,2.10
2023-05-19T04:12:13.915Z,2.00
2023-05-19T04:14:41.441Z,2.25
2023-05-19T04:17:09.117Z,1.80
2023-05-19T04:19:37.980Z,2.53
2023-05-19T04:22:06.163Z,2.00
2023-05-19T04:24:33.805Z,2.20
2023-05-19T04:27:02.767Z,2.25
2023-05-19T04:29:30.408Z,1.95
2023-05-19T04:31:58.174Z,2.75
2023-05-19T04:34:25.740Z,2.10
2023-05-19T04:36:55.431Z,2.70
2023-05-19T04:39:22.943Z,2.47
2023-05-19T04:41:50.418Z,2.85
2023-05-19T04:44:18.473Z,2.70
2023-05-19T04:46:46.208Z,2.70
2023-05-19T04:49:14.048Z,2.67
2023-05-19T04:51:42.380Z,3.20
2023-05-19T04:54:11.239Z,2.60
2023-05-19T04:56:38.995Z,2.40
2023-05-19T04:59:06.891Z,2.67
2023-05-19T05:01:34.476Z,2.35
2023-05-19T05:04:02.700Z,2.42
2023-05-19T05:06:31.763Z,2.70
2023-05-19T05:08:59.994Z,2.80
2023-05-19T05:11:29.548Z,2.70
2023-05-19T05:13:58.205Z,3.13
2023-05-19T05:16:26.800Z,2.70
2023-05-19T05:18:54.768Z,2.70
2023-05-19T05:21:23.701Z,2.70
2023-05-19T05:23:51.857Z,2.85
2023-05-19T05:26:21.433Z,2.38
2023-05-19T05:28:50.458Z,2.58
2023-05-19T05:31:18.024Z,3.33
2023-05-19T05:33:45.753Z,2.92
2023-05-19T05:36:13.769Z,2.88
2023-05-19T05:38:50.320Z,2.55
2023-05-19T05:41:17.870Z,2.90
2023-05-19T05:43:45.370Z,2.88
2023-05-19T05:46:14.269Z,2.47
2023-05-19T05:48:42.790Z,2.95
2023-05-19T05:51:11.041Z,2.42
2023-05-19T05:53:42.927Z,2.92
2023-05-19T05:58:40.781Z,2.92
2023-05-19T06:01:11.631Z,3.15
2023-05-19T06:03:42.660Z,2.80
2023-05-19T06:06:10.321Z,2.90
2023-05-19T06:08:37.866Z,3.00
2023-05-19T06:11:08.498Z,3.10
2023-05-19T06:13:36.526Z,3.30
2023-05-19T06:16:04.307Z,2.92
2023-05-19T06:18:31.892Z,2.97
2023-05-19T06:21:01.635Z,3.05
2023-05-19T06:23:29.280Z,3.40
2023-05-19T06:25:57.755Z,2.83
2023-05-19T06:28:25.259Z,3.45
2023-05-19T06:30:52.917Z,3.25
2023-05-19T06:33:20.587Z,3.00
2023-05-19T06:35:48.103Z,3.20
2023-05-19T06:38:16.885Z,3.45
2023-05-19T06:40:44.422Z,2.95
2023-05-19T06:43:11.925Z,4.10
2023-05-19T06:45:39.476Z,4.95
2023-05-19T06:48:07.055Z,4.78
2023-05-19T06:50:34.906Z,3.83
2023-05-19T06:53:02.567Z,3.75
2023-05-19T06:55:32.185Z,3.15
2023-05-19T06:57:59.743Z,3.40
2023-05-19T07:00:27.270Z,3.72
2023-05-19T07:02:54.897Z,6.13
2023-05-19T07:05:22.619Z,4.10
2023-05-19T07:07:50.154Z,6.15
2023-05-19T07:10:17.653Z,2.97
2023-05-19T07:12:46.478Z,3.00
2023-05-19T07:15:13.955Z,3.30
2023-05-19T07:17:41.593Z,3.08
2023-05-19T07:20:10.853Z,2.95
2023-05-19T07:22:39.737Z,3.20
2023-05-19T07:25:08.101Z,3.20
2023-05-19T07:27:35.890Z,3.40
2023-05-19T07:30:05.074Z,3.13
2023-05-19T07:32:32.607Z,3.10
2023-05-19T07:35:00.206Z,2.88
2023-05-19T07:37:27.696Z,2.92
2023-05-19T07:39:55.316Z,2.90
2023-05-19T07:42:22.805Z,3.38
2023-05-19T07:44:50.304Z,2.95
2023-05-19T07:47:19.268Z,2.97
2023-05-19T07:49:48.182Z,3.30
2023-05-19T07:52:18.246Z,3.08
2023-05-19T07:54:46.648Z,3.13
2023-05-19T07:57:14.510Z,3.10
2023-05-19T07:59:42.027Z,3.30
2023-05-19T08:02:09.524Z,3.35
2023-05-19T08:04:38.461Z,3.15
2023-05-19T08:07:06.214Z,3.00
2023-05-19T08:09:33.745Z,2.75
2023-05-19T08:12:02.137Z,2.90
2023-05-19T08:14:29.780Z,3.25
2023-05-19T08:16:57.276Z,2.70
2023-05-19T08:19:24.894Z,2.60
2023-05-19T08:21:53.833Z,2.42
2023-05-19T08:24:21.433Z,2.83
2023-05-19T08:26:48.986Z,2.47
2023-05-19T08:29:16.503Z,2.78
2023-05-19T08:31:44.011Z,3.17
2023-05-19T08:34:11.775Z,2.70
2023-05-19T08:36:39.270Z,2.80
2023-05-19T08:39:08.219Z,2.90
2023-05-19T08:41:35.948Z,2.72
2023-05-19T08:44:03.568Z,3.08
2023-05-19T08:46:31.600Z,2.30
2023-05-19T08:49:00.962Z,2.58
2023-05-19T08:51:33.266Z,2.50
2023-05-19T08:54:06.714Z,1.95
2023-05-19T08:56:35.604Z,2.45
2023-05-19T08:59:04.148Z,2.42
2023-05-19T09:01:31.920Z,2.50
2023-05-19T09:03:59.657Z,2.00
2023-05-19T09:06:27.488Z,2.03
2023-05-19T09:08:55.074Z,2.00
2023-05-19T09:11:22.819Z,2.10
2023-05-19T09:13:51.947Z,2.10
2023-05-19T09:16:19.684Z,1.90
2023-05-19T09:18:55.844Z,1.52
2023-05-19T09:21:31.021Z,1.73
2023-05-19T09:23:59.011Z,1.40
2023-05-19T09:26:30.779Z,1.52
2023-05-19T09:29:02.322Z,1.90
2023-05-19T09:31:33.079Z,1.90
2023-05-19T09:34:02.538Z,1.77
2023-05-19T09:36:31.160Z,1.70
2023-05-19T09:38:58.653Z,1.70
2023-05-19T09:41:26.376Z,1.73
2023-05-19T09:43:55.804Z,1.40
2023-05-19T09:46:28.332Z,1.73
2023-05-19T09:48:58.337Z,1.58
2023-05-19T09:51:25.984Z,1.83
2023-05-19T09:53:54.003Z,1.67
2023-05-19T09:56:23.829Z,1.42
2023-05-19T09:58:51.513Z,1.13
2023-05-19T10:01:19.150Z,1.40
2023-05-19T10:03:47.979Z,1.42
2023-05-19T10:06:15.824Z,1.33
2023-05-19T10:08:43.569Z,1.80
2023-05-19T10:11:11.302Z,2.00
2023-05-19T10:13:39.928Z,1.92
2023-05-19T10:16:08.260Z,1.25
2023-05-19T10:18:37.526Z,1.60
2023-05-19T10:21:08.850Z,1.50
2023-05-19T10:23:36.516Z,1.30
2023-05-19T10:26:06.601Z,1.52
2023-05-19T10:28:37.469Z,1.80
2023-05-19T10:31:08.530Z,1.13
2023-05-19T10:33:43.446Z,1.52
2023-05-19T10:36:23.949Z,1.50
2023-05-19T10:38:57.789Z,2.42
2023-05-19T10:41:28.343Z,1.23
2023-05-19T10:44:02.530Z,1.92
2023-05-19T10:46:31.027Z,1.30
2023-05-19T10:48:58.640Z,1.48
2023-05-19T10:51:31.698Z,1.33
2023-05-19T10:53:59.922Z,1.77
2023-05-19T10:56:34.727Z,1.40
2023-05-19T10:59:02.499Z,1.77
2023-05-19T11:01:34.468Z,1.80
2023-05-19T11:04:07.594Z,1.70
2023-05-19T11:06:37.919Z,2.13
2023-05-19T11:09:13.236Z,1.50
2023-05-19T11:11:48.881Z,1.65
2023-05-19T11:14:17.946Z,1.67
2023-05-19T11:16:48.458Z,1.25
2023-05-19T11:19:21.057Z,1.60
2023-05-19T11:21:52.409Z,1.77
2023-05-19T11:24:40.149Z,1.27
2023-05-19T11:27:21.684Z,1.60
2023-05-19T11:29:49.757Z,1.10
2023-05-19T11:32:17.897Z,1.20
2023-05-19T11:34:45.914Z,1.45
2023-05-19T11:37:14.846Z,1.50
2023-05-19T11:39:42.384Z,1.45
2023-05-19T11:42:10.935Z,1.35
2023-05-19T11:44:38.723Z,1.83
2023-05-19T11:47:06.922Z,1.52
2023-05-19T11:49:34.768Z,1.63
2023-05-19T11:52:02.807Z,2.10
2023-05-19T11:54:32.651Z,1.67
2023-05-19T11:57:02.745Z,1.85
2023-05-19T11:59:33.454Z,3.50
2023-05-19T12:02:04.789Z,1.60
2023-05-19T12:04:33.471Z,7.22
2023-05-19T12:07:01.095Z,2.05
2023-05-19T12:09:29.510Z,1.45
2023-05-19T12:11:58.466Z,1.30
2023-05-19T12:14:27.144Z,1.95
2023-05-19T12:16:54.728Z,2.13
2023-05-19T12:19:24.078Z,2.88
2023-05-19T12:21:51.940Z,1.60
2023-05-19T12:24:19.471Z,1.80
2023-05-19T12:26:47.166Z,1.73
2023-05-19T12:29:15.991Z,1.80
2023-05-19T12:31:47.611Z,1.80
2023-05-19T12:36:42.682Z,1.75
2023-05-19T12:39:11.809Z,1.58
2023-05-19T12:41:39.263Z,1.85
2023-05-19T12:44:16.954Z,1.60
2023-05-19T12:46:45.115Z,2.00
2023-05-19T12:49:12.606Z,1.67
2023-05-19T12:51:40.435Z,1.63
2023-05-19T12:54:08.036Z,5.00
2023-05-19T12:56:35.545Z,1.73
2023-05-19T12:59:03.128Z,2.78
2023-05-19T13:01:32.257Z,1.73
2023-05-19T13:04:00.296Z,1.75
2023-05-19T13:06:28.046Z,1.90
2023-05-19T13:08:55.534Z,1.60
2023-05-19T13:11:23.056Z,1.90
2023-05-19T13:13:50.536Z,1.55
2023-05-19T13:16:18.096Z,1.50
2023-05-19T13:18:47.014Z,1.70
2023-05-19T13:21:15.258Z,2.78
2023-05-19T13:23:42.726Z,1.60
2023-05-19T13:26:13.270Z,1.98
2023-05-19T13:28:40.773Z,2.20
2023-05-19T13:31:08.358Z,1.95
2023-05-19T13:33:36.012Z,1.80
2023-05-19T13:36:05.415Z,1.92
2023-05-19T13:38:32.982Z,1.58
2023-05-19T13:41:00.540Z,1.50
2023-05-19T13:43:28.034Z,1.75
2023-05-19T13:45:55.556Z,1.58
2023-05-19T13:48:23.125Z,1.80
2023-05-19T13:50:52.514Z,1.80
2023-05-19T13:53:21.350Z,2.33
2023-05-19T13:55:48.951Z,2.08
2023-05-19T13:58:17.083Z,1.83
2023-05-19T14:00:44.560Z,2.53
2023-05-19T14:03:12.544Z,1.45
2023-05-19T14:05:40.150Z,1.92
2023-05-19T14:08:07.875Z,1.85
2023-05-19T14:10:36.747Z,1.40
2023-05-19T14:13:29.667Z,1.70
2023-05-19T14:15:52.239Z,1.88
2023-05-19T14:18:19.835Z,1.92
2023-05-19T14:20:47.313Z,1.75
2023-05-19T14:23:17.006Z,1.98
2023-05-19T14:25:46.034Z,1.55
2023-05-19T14:28:13.541Z,2.55
2023-05-19T14:30:41.448Z,1.55
2023-05-19T14:33:09.332Z,1.75
2023-05-19T14:35:37.050Z,2.47
2023-05-19T14:38:04.563Z,1.75
2023-05-19T14:40:32.184Z,2.30
2023-05-19T14:43:01.273Z,2.13
2023-05-19T14:45:29.099Z,2.15
2023-05-19T14:47:56.814Z,2.13
2023-05-19T14:50:24.356Z,2.30
2023-05-19T14:52:52.014Z,2.10
2023-05-19T14:55:19.475Z,2.03
2023-05-19T14:57:46.991Z,2.00
2023-05-19T15:00:16.922Z,1.70
2023-05-19T15:02:44.586Z,2.13
2023-05-19T15:05:12.675Z,1.95
2023-05-19T15:07:40.184Z,2.05
2023-05-19T15:10:09.208Z,1.83
2023-05-19T15:12:36.719Z,1.55
2023-05-19T15:15:05.093Z,2.05
2023-05-19T15:17:33.913Z,2.15
2023-05-19T15:20:01.615Z,2.03
2023-05-19T15:22:29.297Z,1.67
2023-05-19T15:24:56.946Z,1.77
2023-05-19T15:27:24.543Z,1.85
2023-05-19T15:29:51.990Z,2.17
2023-05-19T15:32:20.237Z,1.80
2023-05-19T15:34:49.150Z,1.95
2023-05-19T15:37:16.784Z,1.80
2023-05-19T15:39:44.298Z,2.10
2023-05-19T15:42:12.288Z,2.08
2023-05-19T15:44:39.833Z,1.70
2023-05-19T15:47:07.296Z,1.70
2023-05-19T15:49:34.949Z,1.75
2023-05-19T15:52:04.106Z,1.50
2023-05-19T15:54:31.666Z,1.60
2023-05-19T15:56:59.192Z,1.80
2023-05-19T15:59:26.679Z,1.70
2023-05-19T16:01:54.175Z,2.00
2023-05-19T16:04:21.811Z,2.55
2023-05-19T16:06:49.438Z,1.95
2023-05-19T16:09:18.226Z,1.70
2023-05-19T16:11:45.777Z,1.80
2023-05-19T16:14:13.273Z,1.92
2023-05-19T16:16:40.880Z,2.15
2023-05-19T16:19:08.504Z,2.10
2023-05-19T16:21:36.115Z,2.35
2023-05-19T16:24:03.645Z,2.15
2023-05-19T16:26:34.322Z,2.45
2023-05-19T16:29:01.944Z,1.63
2023-05-19T16:31:29.597Z,3.08
2023-05-19T16:33:57.117Z,2.20
2023-05-19T16:36:24.728Z,2.05
2023-05-19T16:38:53.341Z,2.60
2023-05-19T16:41:21.694Z,2.25
2023-05-19T16:43:50.492Z,2.83
2023-05-19T16:46:18.018Z,2.50
2023-05-19T16:48:45.573Z,2.70
2023-05-19T16:51:13.138Z,1.98
2023-05-19T16:53:41.254Z,2.05
2023-05-19T16:56:09.009Z,2.10
2023-05-19T16:58:36.554Z,2.25
2023-05-19T17:01:05.818Z,1.85
2023-05-19T17:03:35.672Z,2.00
2023-05-19T17:06:03.385Z,2.05
2023-05-19T17:08:30.876Z,2.20
2023-05-19T17:10:58.356Z,2.10
2023-05-19T17:13:28.276Z,1.88
2023-05-19T17:15:55.760Z,2.38
2023-05-19T17:18:24.606Z,3.00
2023-05-19T17:20:52.110Z,2.20
2023-05-19T17:23:19.568Z,2.60
2023-05-19T17:25:47.180Z,2.33
2023-05-19T17:28:14.665Z,2.10
2023-05-19T17:30:42.327Z,2.13
2023-05-19T17:33:09.842Z,1.77
2023-05-19T17:35:38.690Z,2.33
2023-05-19T17:38:06.261Z,2.00
2023-05-19T17:40:34.830Z,2.25
2023-05-19T17:43:02.631Z,1.90
2023-05-19T17:45:30.141Z,2.20
2023-05-19T17:47:57.731Z,2.05
2023-05-19T17:50:25.282Z,1.90
2023-05-19T17:52:56.171Z,2.42
2023-05-19T17:55:27.959Z,2.05
2023-05-19T18:00:25.235Z,2.40
2023-05-19T18:02:53.703Z,2.50
2023-05-19T18:05:22.221Z,2.15
2023-05-19T18:07:50.515Z,2.00
2023-05-19T18:10:19.544Z,2.88
2023-05-19T18:12:47.107Z,2.15
2023-05-19T18:15:14.696Z,2.10
2023-05-19T18:17:42.382Z,2.17
2023-05-19T18:20:10.859Z,2.10
2023-05-19T18:22:38.550Z,2.30
2023-05-19T18:25:07.387Z,2.22
2023-05-19T18:27:36.233Z,2.10
2023-05-19T18:30:03.964Z,2.00
2023-05-19T18:32:31.838Z,2.10
2023-05-19T18:34:59.321Z,1.88
2023-05-19T18:37:28.365Z,1.77
2023-05-19T18:39:56.150Z,2.65
2023-05-19T18:42:23.637Z,2.08
2023-05-19T18:44:52.579Z,2.10
2023-05-19T18:47:20.344Z,1.95
2023-05-19T18:49:48.017Z,2.00
2023-05-19T18:52:15.643Z,2.60
2023-05-19T18:54:45.872Z,2.65
2023-05-19T18:57:13.776Z,2.60
2023-05-19T18:59:41.401Z,2.63
2023-05-19T19:02:10.365Z,2.47
2023-05-19T19:04:37.897Z,2.00
2023-05-19T19:07:06.675Z,2.35
2023-05-19T19:09:34.351Z,2.22
2023-05-19T19:12:02.059Z,2.35
2023-05-19T19:14:29.590Z,2.08
2023-05-19T19:16:57.381Z,2.80
2023-05-19T19:19:29.875Z,2.67
2023-05-19T19:21:57.737Z,2.35
2023-05-19T19:24:26.527Z,2.50
2023-05-19T19:26:54.070Z,2.65
2023-05-19T19:29:22.144Z,2.67
2023-05-19T19:31:49.944Z,2.95
2023-05-19T19:34:19.743Z,2.80
2023-05-19T19:36:49.773Z,2.88
2023-05-19T19:39:17.311Z,2.72
2023-05-19T19:41:44.803Z,2.97
2023-05-19T19:44:13.676Z,2.33
2023-05-19T19:46:41.355Z,2.95
2023-05-19T19:49:09.101Z,3.17
2023-05-19T19:51:36.737Z,3.05
2023-05-19T19:54:05.894Z,3.15
2023-05-19T19:56:33.451Z,2.80
2023-05-19T19:59:01.615Z,2.90
2023-05-19T20:01:29.149Z,2.85
2023-05-19T20:03:57.586Z,2.83
2023-05-19T20:06:25.133Z,2.80
2023-05-19T20:08:52.669Z,3.50
2023-05-19T20:11:23.858Z,2.72
2023-05-19T20:13:52.189Z,3.33
2023-05-19T20:16:19.926Z,2.78
2023-05-19T20:18:47.550Z,3.25
2023-05-19T20:21:15.260Z,2.92
2023-05-19T20:23:42.872Z,3.25
2023-05-19T20:26:13.157Z,3.47
2023-05-19T20:28:42.505Z,2.88
2023-05-19T20:31:10.009Z,3.50
2023-05-19T20:33:37.659Z,3.47
2023-05-19T20:36:06.358Z,3.17
2023-05-19T20:38:34.034Z,4.10
2023-05-19T20:41:01.968Z,3.58
2023-05-19T20:43:29.577Z,3.47
2023-05-19T20:45:58.602Z,3.75
2023-05-19T20:48:26.361Z,3.60
2023-05-19T20:50:54.767Z,3.00
2023-05-19T20:53:22.661Z,3.28
2023-05-19T20:55:50.312Z,3.05
2023-05-19T20:58:17.806Z,3.30
2023-05-19T21:00:45.478Z,3.97
2023-05-19T21:03:14.420Z,3.53
2023-05-19T21:05:42.025Z,3.50
2023-05-19T21:08:12.840Z,3.83
2023-05-19T21:10:40.975Z,4.68
2023-05-19T21:13:08.674Z,4.53
2023-05-19T21:15:36.332Z,5.35
2023-05-19T21:18:03.962Z,6.03
2023-05-19T21:20:32.993Z,7.00
2023-05-19T21:23:00.666Z,5.47
2023-05-19T21:25:28.251Z,6.10
2023-05-19T21:27:56.107Z,5.68
2023-05-19T21:30:23.901Z,7.20
2023-05-19T21:32:51.634Z,7.38
2023-05-19T21:35:19.192Z,7.30
2023-05-19T21:37:48.228Z,7.18
2023-05-19T21:40:16.113Z,6.18
2023-05-19T21:42:43.760Z,4.85
2023-05-19T21:45:12.004Z,4.20
2023-05-19T21:47:39.558Z,4.22
2023-05-19T21:50:08.456Z,4.68
2023-05-19T21:52:38.160Z,5.80
2023-05-19T21:55:08.888Z,6.35
2023-05-19T21:57:36.431Z,6.60
2023-05-19T22:00:06.532Z,6.63
2023-05-19T22:02:33.995Z,6.60
2023-05-19T22:05:01.787Z,6.30
2023-05-19T22:07:29.315Z,4.85
2023-05-19T22:09:56.887Z,4.80
2023-05-19T22:12:25.875Z,4.82
2023-05-19T22:14:53.430Z,4.00
2023-05-19T22:17:21.011Z,4.13
2023-05-19T22:19:48.574Z,3.55
2023-05-19T22:22:16.303Z,3.65
2023-05-19T22:24:43.880Z,3.88
2023-05-19T22:27:11.651Z,3.88
2023-05-19T22:29:40.480Z,3.55
2023-05-19T22:32:11.930Z,3.97
2023-05-19T22:34:39.646Z,3.47
2023-05-19T22:37:07.304Z,3.30
2023-05-19T22:39:34.801Z,3.47
2023-05-19T22:42:02.808Z,3.00
2023-05-19T22:44:30.332Z,3.30
2023-05-19T22:46:59.126Z,2.92
2023-05-19T22:49:27.455Z,3.33
2023-05-19T22:51:54.951Z,3.22
2023-05-19T22:54:22.462Z,3.50
2023-05-19T22:56:49.976Z,4.10
2023-05-19T22:59:18.456Z,3.78
2023-05-19T23:01:47.124Z,4.18
2023-05-19T23:04:25.001Z,4.15
2023-05-19T23:06:52.706Z,4.00
2023-05-19T23:09:20.375Z,3.75
2023-05-19T23:11:47.858Z,3.85
2023-05-19T23:14:15.362Z,3.40
2023-05-19T23:16:42.957Z,3.55
2023-05-19T23:19:10.521Z,3.80
2023-05-19T23:21:39.448Z,3.47
2023-05-19T23:24:07.459Z,3.65
2023-05-19T23:26:35.012Z,3.90
2023-05-19T23:29:02.551Z,4.18
2023-05-19T23:31:30.142Z,3.90
2023-05-19T23:33:57.728Z,3.60
2023-05-19T23:36:25.236Z,3.92
2023-05-19T23:38:54.118Z,3.63
2023-05-19T23:41:21.846Z,4.00
2023-05-19T23:43:49.325Z,4.13
2023-05-19T23:46:16.882Z,4.00
2023-05-19T23:48:44.475Z,3.60
2023-05-19T23:51:12.012Z,4.38
2023-05-19T23:53:39.633Z,4.00
2023-05-19T23:56:09.140Z,3.70
2023-05-19T23:58:36.731Z,3.63
